createdAt,value
2023-04-25T00:02:15.377Z,1.80
2023-04-25T00:04:43.175Z,2.30
2023-04-25T00:07:11.568Z,1.77
2023-04-25T00:09:38.454Z,1.88
2023-04-25T00:12:06.025Z,2.05
2023-04-25T00:14:35.108Z,2.13
2023-04-25T00:17:02.576Z,1.88
2023-04-25T00:19:29.700Z,2.00
2023-04-25T00:21:57.374Z,2.42
2023-04-25T00:24:24.708Z,2.28
2023-04-25T00:26:51.967Z,1.90
2023-04-25T00:29:19.214Z,2.25
2023-04-25T00:31:46.198Z,2.13
2023-04-25T00:34:13.901Z,2.03
2023-04-25T00:36:41.975Z,2.53
2023-04-25T00:39:10.228Z,2.72
2023-04-25T00:41:37.529Z,2.90
2023-04-25T00:44:05.468Z,2.42
2023-04-25T00:46:33.143Z,3.13
2023-04-25T00:49:00.591Z,2.35
2023-04-25T00:51:27.888Z,2.78
2023-04-25T00:53:55.344Z,2.72
2023-04-25T00:56:22.881Z,2.60
2023-04-25T00:58:51.346Z,2.47
2023-04-25T01:01:18.320Z,2.20
2023-04-25T01:03:47.961Z,2.28
2023-04-25T01:06:15.613Z,2.72
2023-04-25T01:08:44.033Z,2.58
2023-04-25T01:11:11.589Z,2.55
2023-04-25T01:13:39.081Z,2.42
2023-04-25T01:16:06.239Z,2.15
2023-04-25T01:18:33.816Z,2.42
2023-04-25T01:21:12.080Z,2.22
2023-04-25T01:23:41.066Z,2.28
2023-04-25T01:26:12.454Z,2.42
2023-04-25T01:28:43.683Z,2.15
2023-04-25T01:31:13.163Z,2.58
2023-04-25T01:33:40.239Z,2.13
2023-04-25T01:36:07.680Z,2.20
2023-04-25T01:38:36.538Z,2.30
2023-04-25T01:41:03.800Z,2.20
2023-04-25T01:43:30.825Z,2.03
2023-04-25T01:45:58.336Z,2.28
2023-04-25T01:48:25.992Z,2.13
2023-04-25T01:50:53.860Z,2.03
2023-04-25T01:53:20.772Z,2.17
2023-04-25T01:55:48.784Z,2.28
2023-04-25T01:58:19.145Z,2.28
2023-04-25T02:01:02.107Z,2.30
2023-04-25T02:03:36.302Z,2.55
2023-04-25T02:06:06.992Z,2.47
2023-04-25T02:08:38.549Z,2.42
2023-04-25T02:11:05.880Z,2.30
2023-04-25T02:13:40.469Z,2.55
2023-04-25T02:16:33.510Z,2.60
2023-04-25T02:19:02.186Z,2.63
2023-04-25T02:21:31.578Z,2.85
2023-04-25T02:23:59.161Z,2.50
2023-04-25T02:26:28.907Z,2.45
2023-04-25T02:28:56.179Z,2.35
2023-04-25T02:31:23.589Z,2.75
2023-04-25T02:33:52.348Z,2.45
2023-04-25T02:36:19.677Z,2.28
2023-04-25T02:38:46.946Z,2.70
2023-04-25T02:41:14.539Z,2.38
2023-04-25T02:43:41.756Z,2.70
2023-04-25T02:46:08.882Z,2.85
2023-04-25T02:48:36.174Z,2.80
2023-04-25T02:51:03.422Z,2.33
2023-04-25T02:53:30.951Z,2.78
2023-04-25T02:56:00.159Z,2.85
2023-04-25T02:58:27.468Z,2.90
2023-04-25T03:00:55.790Z,2.75
2023-04-25T03:03:23.045Z,3.30
2023-04-25T03:05:51.850Z,3.08
2023-04-25T03:08:24.118Z,2.85
2023-04-25T03:10:53.079Z,2.90
2023-04-25T03:13:19.936Z,3.45
2023-04-25T03:15:47.528Z,2.95
2023-04-25T03:18:15.042Z,2.95
2023-04-25T03:20:42.914Z,2.63
2023-04-25T03:23:10.104Z,3.17
2023-04-25T03:25:39.612Z,3.28
2023-04-25T03:28:07.137Z,3.10
2023-04-25T03:30:34.809Z,2.97
2023-04-25T03:33:02.600Z,3.03
2023-04-25T03:35:29.640Z,3.15
2023-04-25T03:37:57.023Z,3.03
2023-04-25T03:40:29.580Z,3.25
2023-04-25T03:43:15.770Z,2.92
2023-04-25T03:45:49.537Z,2.53
2023-04-25T03:48:22.459Z,2.88
2023-04-25T03:50:50.059Z,2.97
2023-04-25T03:53:17.369Z,2.80
2023-04-25T03:56:10.884Z,3.58
2023-04-25T03:58:39.906Z,3.25
2023-04-25T04:01:08.808Z,3.38
2023-04-25T04:03:38.913Z,3.13
2023-04-25T04:06:06.993Z,3.55
2023-04-25T04:08:37.927Z,3.08
2023-04-25T04:11:04.988Z,3.03
2023-04-25T04:13:32.991Z,3.00
2023-04-25T04:16:01.026Z,3.25
2023-04-25T04:18:28.079Z,3.13
2023-04-25T04:20:59.080Z,3.90
2023-04-25T04:23:29.257Z,3.42
2023-04-25T04:25:57.782Z,3.10
2023-04-25T04:28:45.083Z,3.07
2023-04-25T04:31:25.017Z,2.67
2023-04-25T04:33:53.489Z,3.25
2023-04-25T04:36:27.189Z,3.50
2023-04-25T04:38:54.989Z,3.80
2023-04-25T04:41:33.450Z,3.35
2023-04-25T04:44:19.676Z,3.28
2023-04-25T04:47:07.206Z,3.40
2023-04-25T04:50:10.649Z,2.78
2023-04-25T04:53:14.438Z,3.30
2023-04-25T04:55:49.255Z,3.03
2023-04-25T04:58:51.912Z,3.47
2023-04-25T05:01:39.677Z,3.50
2023-04-25T05:04:25.470Z,3.85
2023-04-25T05:07:05.444Z,3.38
2023-04-25T05:09:32.673Z,3.70
2023-04-25T05:12:28.769Z,3.70
2023-04-25T05:15:16.313Z,3.72
2023-04-25T05:17:52.509Z,4.05
2023-04-25T05:20:20.101Z,3.17
2023-04-25T05:23:02.468Z,3.65
2023-04-25T05:25:48.885Z,3.80
2023-04-25T05:28:34.261Z,3.92
2023-04-25T05:31:20.026Z,4.18
2023-04-25T05:33:55.567Z,3.67
2023-04-25T05:36:24.548Z,3.13
2023-04-25T05:38:51.810Z,3.72
2023-04-25T05:41:21.877Z,3.45
2023-04-25T05:44:14.123Z,3.25
2023-04-25T05:46:50.691Z,3.25
2023-04-25T05:49:41.161Z,3.67
2023-04-25T05:52:29.361Z,3.20
2023-04-25T05:55:08.621Z,3.60
2023-04-25T05:57:36.033Z,3.72
2023-04-25T06:00:04.693Z,3.40
2023-04-25T06:02:41.550Z,3.80
2023-04-25T06:05:10.361Z,3.80
2023-04-25T06:07:37.808Z,3.88
2023-04-25T06:10:07.366Z,3.72
2023-04-25T06:12:34.677Z,3.90
2023-04-25T06:15:03.545Z,4.28
2023-04-25T06:17:32.392Z,3.55
2023-04-25T06:20:00.050Z,4.03
2023-04-25T06:22:27.560Z,3.90
2023-04-25T06:24:54.775Z,3.72
2023-04-25T06:27:21.993Z,4.28
2023-04-25T06:29:49.416Z,3.47
2023-04-25T06:32:16.678Z,3.95
2023-04-25T06:34:43.984Z,3.60
2023-04-25T06:37:11.201Z,4.05
2023-04-25T06:39:41.097Z,3.83
2023-04-25T06:42:08.570Z,3.88
2023-04-25T06:45:02.000Z,2.97
2023-04-25T06:47:30.933Z,3.03
2023-04-25T06:50:00.634Z,3.92
2023-04-25T06:52:27.657Z,3.00
2023-04-25T06:54:55.018Z,3.40
2023-04-25T06:57:34.853Z,2.95
2023-04-25T07:00:19.568Z,3.10
2023-04-25T07:02:47.501Z,3.55
2023-04-25T07:05:15.357Z,2.67
2023-04-25T07:07:43.398Z,2.88
2023-04-25T07:10:11.444Z,2.72
2023-04-25T07:12:38.762Z,4.25
2023-04-25T07:15:07.238Z,3.28
2023-04-25T07:17:35.135Z,2.85
2023-04-25T07:20:02.444Z,2.55
2023-04-25T07:22:29.762Z,3.10
2023-04-25T07:24:56.988Z,3.17
2023-04-25T07:27:26.491Z,2.83
2023-04-25T07:30:02.727Z,2.70
2023-04-25T07:32:30.140Z,3.05
2023-04-25T07:34:58.396Z,3.17
2023-04-25T07:37:27.141Z,2.63
2023-04-25T07:40:05.444Z,2.75
2023-04-25T07:42:33.158Z,2.53
2023-04-25T07:45:00.734Z,2.88
2023-04-25T07:47:28.048Z,2.85
2023-04-25T07:49:55.562Z,3.45
2023-04-25T07:52:22.877Z,2.63
2023-04-25T07:54:55.269Z,2.65
2023-04-25T07:57:29.730Z,2.50
2023-04-25T07:59:58.819Z,2.53
2023-04-25T08:02:29.426Z,3.38
2023-04-25T08:04:57.200Z,3.20
2023-04-25T08:07:24.974Z,3.05
2023-04-25T08:09:56.173Z,3.20
2023-04-25T08:12:28.031Z,3.05
2023-04-25T08:14:55.445Z,3.00
2023-04-25T08:17:25.232Z,2.92
2023-04-25T08:19:52.892Z,3.05
2023-04-25T08:22:27.514Z,3.15
2023-04-25T08:25:09.090Z,3.00
2023-04-25T08:27:36.869Z,2.88
2023-04-25T08:30:06.584Z,2.90
2023-04-25T08:32:34.808Z,3.28
2023-04-25T08:35:18.524Z,3.00
2023-04-25T08:37:45.880Z,3.17
2023-04-25T08:40:16.620Z,3.03
2023-04-25T08:42:59.514Z,2.35
2023-04-25T08:45:29.056Z,2.80
2023-04-25T08:47:58.506Z,2.40
2023-04-25T08:50:27.390Z,3.17
2023-04-25T08:52:56.340Z,3.08
2023-04-25T08:55:24.607Z,2.60
2023-04-25T08:57:57.530Z,2.63
2023-04-25T09:00:25.603Z,2.30
2023-04-25T09:02:53.364Z,2.58
2023-04-25T09:05:21.738Z,2.50
2023-04-25T09:07:52.519Z,2.72
2023-04-25T09:10:20.014Z,2.58
2023-04-25T09:13:06.593Z,2.25
2023-04-25T09:15:50.752Z,2.63
2023-04-25T09:18:35.363Z,2.00
2023-04-25T09:21:14.371Z,2.50
2023-04-25T09:23:49.709Z,1.92
2023-04-25T09:26:21.024Z,1.63
2023-04-25T09:28:49.334Z,1.73
2023-04-25T09:31:25.256Z,1.80
2023-04-25T09:34:02.401Z,2.47
2023-04-25T09:36:35.949Z,2.13
2023-04-25T09:39:34.271Z,1.55
2023-04-25T09:42:12.596Z,1.70
2023-04-25T09:44:44.385Z,2.47
2023-04-25T09:47:13.661Z,2.00
2023-04-25T09:49:43.378Z,1.77
2023-04-25T09:52:25.662Z,1.80
2023-04-25T09:55:16.950Z,1.70
2023-04-25T09:57:49.799Z,2.22
2023-04-25T10:00:18.307Z,1.90
2023-04-25T10:02:49.617Z,1.90
2023-04-25T10:05:41.830Z,1.75
2023-04-25T10:08:09.716Z,1.70
2023-04-25T10:10:37.362Z,1.60
2023-04-25T10:13:06.595Z,1.85
2023-04-25T10:15:39.705Z,1.70
2023-04-25T10:18:08.166Z,1.65
2023-04-25T10:20:35.919Z,1.70
2023-04-25T10:23:14.081Z,1.95
2023-04-25T10:25:42.560Z,1.92
2023-04-25T10:28:09.814Z,1.80
2023-04-25T10:30:37.111Z,2.03
2023-04-25T10:33:18.592Z,1.88
2023-04-25T10:35:46.452Z,1.35
2023-04-25T10:38:15.600Z,1.70
2023-04-25T10:40:42.912Z,1.80
2023-04-25T10:43:42.156Z,1.80
2023-04-25T10:46:20.426Z,1.75
2023-04-25T10:48:54.943Z,1.60
2023-04-25T10:51:32.439Z,1.98
2023-04-25T10:54:02.099Z,2.10
2023-04-25T10:56:29.350Z,1.65
2023-04-25T10:59:11.505Z,1.92
2023-04-25T11:01:39.203Z,1.83
2023-04-25T11:04:06.850Z,2.50
2023-04-25T11:06:34.319Z,2.13
2023-04-25T11:09:03.124Z,1.98
2023-04-25T11:11:31.247Z,2.50
2023-04-25T11:13:58.520Z,2.63
2023-04-25T11:16:28.289Z,2.65
2023-04-25T11:18:58.796Z,2.78
2023-04-25T11:21:28.987Z,2.50
2023-04-25T11:23:57.939Z,2.13
2023-04-25T11:26:26.389Z,2.63
2023-04-25T11:28:53.655Z,2.70
2023-04-25T11:31:22.801Z,2.42
2023-04-25T11:33:50.337Z,2.60
2023-04-25T11:36:18.030Z,3.05
2023-04-25T11:38:45.436Z,2.50
2023-04-25T11:41:13.282Z,2.33
2023-04-25T11:46:09.221Z,2.60
2023-04-25T11:48:43.533Z,2.55
2023-04-25T11:51:11.404Z,2.17
2023-04-25T11:53:42.492Z,2.03
2023-04-25T11:56:13.115Z,2.60
2023-04-25T11:59:01.761Z,2.67
2023-04-25T12:01:35.669Z,2.70
2023-04-25T12:04:23.919Z,2.47
2023-04-25T12:06:53.204Z,2.53
2023-04-25T12:09:32.883Z,2.33
2023-04-25T12:12:03.968Z,2.17
2023-04-25T12:14:36.093Z,2.38
2023-04-25T12:17:05.267Z,2.60
2023-04-25T12:19:36.964Z,3.35
2023-04-25T12:22:04.807Z,2.75
2023-04-25T12:24:38.309Z,2.22
2023-04-25T12:27:09.269Z,2.53
2023-04-25T12:32:07.319Z,2.03
2023-04-25T12:34:36.892Z,2.50
2023-04-25T12:37:04.439Z,2.63
2023-04-25T12:39:31.648Z,2.65
2023-04-25T12:42:00.157Z,2.45
2023-04-25T12:44:27.387Z,2.45
2023-04-25T12:46:55.656Z,2.60
2023-04-25T12:49:23.486Z,2.30
2023-04-25T12:51:50.492Z,1.95
2023-04-25T12:54:17.791Z,1.90
2023-04-25T12:56:45.239Z,2.00
2023-04-25T12:59:12.442Z,2.28
2023-04-25T13:01:40.531Z,2.38
2023-04-25T13:04:08.160Z,2.47
2023-04-25T13:06:35.728Z,2.30
2023-04-25T13:09:04.339Z,1.80
2023-04-25T13:11:32.420Z,2.00
2023-04-25T13:13:59.886Z,1.65
2023-04-25T13:16:27.866Z,2.17
2023-04-25T13:18:57.144Z,1.75
2023-04-25T13:21:24.547Z,2.05
2023-04-25T13:23:52.209Z,2.30
2023-04-25T13:26:19.920Z,2.65
2023-04-25T13:28:47.149Z,1.60
2023-04-25T13:31:14.418Z,1.48
2023-04-25T13:33:41.655Z,2.13
2023-04-25T13:36:08.920Z,2.25
2023-04-25T13:38:36.134Z,2.10
2023-04-25T13:41:03.369Z,2.05
2023-04-25T13:43:30.254Z,2.15
2023-04-25T13:45:57.525Z,1.85
2023-04-25T13:48:25.603Z,1.63
2023-04-25T13:50:52.831Z,1.90
2023-04-25T13:53:20.072Z,2.05
2023-04-25T13:55:47.541Z,1.73
2023-04-25T13:58:14.804Z,1.85
2023-04-25T14:00:44.385Z,1.85
2023-04-25T14:03:11.597Z,2.78
2023-04-25T14:05:39.193Z,2.30
2023-04-25T14:08:10.857Z,2.00
2023-04-25T14:10:38.817Z,1.83
2023-04-25T14:13:06.990Z,1.58
2023-04-25T14:15:35.225Z,2.20
2023-04-25T14:18:02.941Z,2.00
2023-04-25T14:20:30.787Z,1.95
2023-04-25T14:22:59.325Z,2.20
2023-04-25T14:25:26.912Z,1.80
2023-04-25T14:27:54.288Z,1.73
2023-04-25T14:30:22.061Z,1.40
2023-04-25T14:32:50.752Z,1.75
2023-04-25T14:35:18.182Z,1.90
2023-04-25T14:37:45.626Z,1.55
2023-04-25T14:40:14.243Z,1.55
2023-04-25T14:42:41.842Z,1.77
2023-04-25T14:45:09.936Z,2.08
2023-04-25T14:47:37.932Z,1.98
2023-04-25T14:50:05.829Z,1.63
2023-04-25T14:52:33.144Z,1.65
2023-04-25T14:55:06.219Z,1.67
2023-04-25T14:57:34.543Z,1.83
2023-04-25T15:00:02.169Z,1.60
2023-04-25T15:02:30.036Z,1.75
2023-04-25T15:04:57.549Z,1.42
2023-04-25T15:07:24.965Z,1.42
2023-04-25T15:09:51.802Z,1.63
2023-04-25T15:12:19.201Z,1.70
2023-04-25T15:14:46.475Z,1.60
2023-04-25T15:17:15.103Z,1.33
2023-04-25T15:19:42.548Z,1.80
2023-04-25T15:22:09.914Z,1.80
2023-04-25T15:24:37.247Z,1.55
2023-04-25T15:27:05.575Z,1.45
2023-04-25T15:29:32.795Z,1.50
2023-04-25T15:32:00.197Z,2.13
2023-04-25T15:34:27.457Z,2.10
2023-04-25T15:36:54.764Z,1.52
2023-04-25T15:39:21.736Z,1.30
2023-04-25T15:41:49.165Z,1.85
2023-04-25T15:44:16.659Z,1.48
2023-04-25T15:46:45.759Z,1.65
2023-04-25T15:49:13.589Z,1.85
2023-04-25T15:51:40.955Z,1.70
2023-04-25T15:54:08.240Z,1.92
2023-04-25T15:56:35.153Z,1.50
2023-04-25T15:59:02.465Z,2.20
2023-04-25T16:01:31.139Z,1.75
2023-04-25T16:06:26.468Z,1.90
2023-04-25T16:08:53.936Z,1.38
2023-04-25T16:11:21.091Z,1.42
2023-04-25T16:13:48.449Z,2.10
2023-04-25T16:16:16.250Z,1.48
2023-04-25T16:18:43.147Z,1.73
2023-04-25T16:21:11.688Z,10.60
2023-04-25T16:23:38.936Z,7.30
2023-04-25T16:26:06.054Z,4.07
2023-04-25T16:28:33.356Z,5.40
2023-04-25T16:31:00.939Z,3.25
2023-04-25T16:33:28.198Z,2.33
2023-04-25T16:35:55.645Z,2.00
2023-04-25T16:38:22.920Z,1.60
2023-04-25T16:40:50.194Z,1.60
2023-04-25T16:43:19.897Z,1.58
2023-04-25T16:45:47.594Z,1.58
2023-04-25T16:48:14.481Z,1.60
2023-04-25T16:50:41.708Z,1.63
2023-04-25T16:53:08.894Z,1.80
2023-04-25T16:55:36.334Z,1.42
2023-04-25T16:58:03.614Z,1.60
2023-04-25T17:00:31.059Z,1.70
2023-04-25T17:02:58.463Z,2.03
2023-04-25T17:05:26.282Z,1.77
2023-04-25T17:07:53.562Z,1.70
2023-04-25T17:10:20.549Z,1.70
2023-04-25T17:12:48.630Z,1.60
2023-04-25T17:15:16.517Z,1.67
2023-04-25T17:17:43.924Z,1.75
2023-04-25T17:20:11.268Z,1.50
2023-04-25T17:22:38.809Z,1.48
2023-04-25T17:25:07.438Z,2.00
2023-04-25T17:27:37.374Z,1.23
2023-04-25T17:30:05.649Z,2.05
2023-04-25T17:32:32.967Z,2.08
2023-04-25T17:35:00.665Z,1.48
2023-04-25T17:37:28.648Z,2.00
2023-04-25T17:39:56.035Z,1.65
2023-04-25T17:42:23.283Z,1.20
2023-04-25T17:44:50.680Z,1.90
2023-04-25T17:47:17.557Z,1.45
2023-04-25T17:49:44.888Z,1.40
2023-04-25T17:52:12.293Z,1.40
2023-04-25T17:54:39.133Z,1.35
2023-04-25T17:57:05.919Z,1.10
2023-04-25T17:59:33.473Z,1.63
2023-04-25T18:02:01.072Z,1.25
2023-04-25T18:04:28.392Z,1.40
2023-04-25T18:06:55.743Z,1.42
2023-04-25T18:09:25.887Z,1.55
2023-04-25T18:11:53.333Z,1.55
2023-04-25T18:14:21.535Z,1.52
2023-04-25T18:16:50.552Z,1.90
2023-04-25T18:19:21.475Z,1.38
2023-04-25T18:21:55.624Z,1.58
2023-04-25T18:24:24.437Z,1.92
2023-04-25T18:26:53.520Z,1.40
2023-04-25T18:29:32.220Z,1.30
2023-04-25T18:32:01.369Z,1.77
2023-04-25T18:34:28.874Z,2.05
2023-04-25T18:36:56.872Z,2.72
2023-04-25T18:39:25.796Z,1.80
2023-04-25T18:42:00.130Z,1.90
2023-04-25T18:44:32.199Z,1.38
2023-04-25T18:46:59.448Z,1.30
2023-04-25T18:49:26.751Z,1.50
2023-04-25T18:51:56.178Z,1.38
2023-04-25T18:54:23.418Z,1.50
2023-04-25T18:56:50.535Z,1.55
2023-04-25T18:59:18.362Z,1.67
2023-04-25T19:01:46.253Z,1.58
2023-04-25T19:04:13.574Z,1.23
2023-04-25T19:06:40.655Z,1.77
2023-04-25T19:09:10.124Z,1.80
2023-04-25T19:11:38.628Z,1.42
2023-04-25T19:14:06.011Z,1.33
2023-04-25T19:16:38.920Z,1.63
2023-04-25T19:19:07.694Z,1.77
2023-04-25T19:21:35.561Z,1.42
2023-04-25T19:24:04.967Z,1.63
2023-04-25T19:26:32.558Z,1.90
2023-04-25T19:29:09.315Z,1.25
2023-04-25T19:31:37.705Z,1.70
2023-04-25T19:34:06.667Z,1.52
2023-04-25T19:36:34.409Z,1.65
2023-04-25T19:39:04.801Z,1.65
2023-04-25T19:41:33.913Z,1.55
2023-04-25T19:44:04.856Z,7.65
2023-04-25T19:46:32.350Z,5.25
2023-04-25T19:49:00.238Z,3.67
2023-04-25T19:51:28.147Z,2.50
2023-04-25T19:53:55.900Z,1.90
2023-04-25T19:56:24.332Z,1.85
2023-04-25T19:58:51.892Z,1.98
2023-04-25T20:01:22.189Z,1.52
2023-04-25T20:03:53.126Z,1.50
2023-04-25T20:06:20.431Z,1.85
2023-04-25T20:08:47.771Z,2.00
2023-04-25T20:11:15.735Z,1.92
2023-04-25T20:13:43.110Z,1.45
2023-04-25T20:16:10.756Z,2.13
2023-04-25T20:18:38.043Z,2.42
2023-04-25T20:21:05.309Z,2.10
2023-04-25T20:23:33.162Z,1.83
2023-04-25T20:26:00.409Z,1.90
2023-04-25T20:28:27.794Z,1.58
2023-04-25T20:30:55.055Z,1.83
2023-04-25T20:33:22.418Z,1.45
2023-04-25T20:35:49.688Z,1.92
2023-04-25T20:38:17.150Z,2.05
2023-04-25T20:40:43.991Z,2.13
2023-04-25T20:43:12.028Z,2.03
2023-04-25T20:45:39.719Z,2.00
2023-04-25T20:48:07.135Z,1.90
2023-04-25T20:50:34.562Z,1.70
2023-04-25T20:53:03.528Z,1.58
2023-04-25T20:55:30.962Z,1.50
2023-04-25T20:57:58.626Z,1.40
2023-04-25T21:00:29.347Z,1.70
2023-04-25T21:02:57.663Z,1.73
2023-04-25T21:05:25.163Z,1.70
2023-04-25T21:07:54.899Z,1.95
2023-04-25T21:10:22.321Z,2.20
2023-04-25T21:12:51.939Z,2.45
2023-04-25T21:15:21.276Z,1.83
2023-04-25T21:17:49.530Z,1.60
2023-04-25T21:20:20.443Z,1.65
2023-04-25T21:22:54.187Z,1.52
2023-04-25T21:25:25.569Z,1.60
2023-04-25T21:27:53.325Z,1.63
2023-04-25T21:30:23.335Z,1.65
2023-04-25T21:32:51.767Z,1.90
2023-04-25T21:35:20.739Z,1.80
2023-04-25T21:37:47.896Z,1.50
2023-04-25T21:40:15.333Z,1.65
2023-04-25T21:42:44.766Z,1.60
2023-04-25T21:45:12.331Z,1.85
2023-04-25T21:47:39.694Z,1.90
2023-04-25T21:50:07.851Z,1.35
2023-04-25T21:52:36.291Z,1.60
2023-04-25T21:55:03.296Z,1.85
2023-04-25T21:57:30.351Z,1.55
2023-04-25T21:59:57.676Z,1.75
2023-04-25T22:02:25.064Z,1.52
2023-04-25T22:04:52.381Z,1.27
2023-04-25T22:07:19.851Z,1.90
2023-04-25T22:09:55.025Z,1.50
2023-04-25T22:14:50.731Z,1.92
2023-04-25T22:17:18.960Z,1.70
2023-04-25T22:19:47.029Z,1.70
2023-04-25T22:22:14.145Z,1.15
2023-04-25T22:24:42.181Z,1.60
2023-04-25T22:27:11.110Z,1.70
2023-04-25T22:29:38.390Z,1.52
2023-04-25T22:32:05.409Z,1.58
2023-04-25T22:34:32.632Z,1.25
2023-04-25T22:36:59.688Z,1.40
2023-04-25T22:39:26.991Z,1.65
2023-04-25T22:41:54.487Z,1.50
2023-04-25T22:44:22.350Z,1.67
2023-04-25T22:46:49.498Z,1.88
2023-04-25T22:49:17.235Z,1.90
2023-04-25T22:51:44.479Z,1.63
2023-04-25T22:54:11.762Z,1.48
2023-04-25T22:56:39.009Z,1.75
2023-04-25T22:59:06.404Z,1.80
2023-04-25T23:01:33.724Z,1.70
2023-04-25T23:04:01.241Z,1.33
2023-04-25T23:06:28.802Z,1.60
2023-04-25T23:08:55.744Z,1.58
2023-04-25T23:11:23.858Z,1.55
2023-04-25T23:13:50.719Z,1.98
2023-04-25T23:16:18.726Z,1.42
2023-04-25T23:18:46.519Z,1.38
2023-04-25T23:21:13.779Z,1.60
2023-04-25T23:23:41.022Z,2.30
2023-04-25T23:26:11.666Z,2.35
2023-04-25T23:28:48.842Z,2.13
2023-04-25T23:31:16.380Z,1.63
2023-04-25T23:33:43.753Z,1.58
2023-04-25T23:36:21.314Z,1.60
2023-04-25T23:38:48.613Z,1.98
2023-04-25T23:41:16.073Z,1.88
2023-04-25T23:43:42.942Z,2.20
2023-04-25T23:46:10.275Z,1.30
2023-04-25T23:48:37.612Z,1.70
2023-04-25T23:51:04.393Z,1.75
2023-04-25T23:53:31.350Z,1.80
2023-04-25T23:55:58.689Z,1.33
2023-04-25T23:58:25.520Z,1.80
